Time;durP1;ratioP1;P1;durP2;ratioP2;P2;SDS_P1;SDS_P2;PMS_P1;PMS_P2;Temp;Humidity;BMP_temperature;BMP_pressure;BME280_temperature;BME280_humidity;BME280_pressure;Samples;Min_cycle;Max_cycle;Signal;HPM_P1;HPM_P2
2023/08/20 00:01:03;;;;;;;11.48;10.48;;;;;;;29.10;82.08;98916.44;4943853;28;103194;-62
2023/08/20 00:03:33;;;;;;;9.83;9.07;;;;;;;29.58;78.75;98913.03;4935353;28;103362;-62
2023/08/20 00:06:03;;;;;;;10.30;9.40;;;;;;;29.68;77.93;98910.59;4940585;28;104132;-63
2023/08/20 00:08:31;;;;;;;14.95;13.45;;;;;;;28.02;86.52;98917.59;4953700;28;103008;-63
2023/08/20 00:10:59;;;;;;;13.38;12.02;;;;;;;28.55;84.32;98914.56;4938020;28;103315;-63
2023/08/20 00:13:28;;;;;;;10.70;9.80;;;;;;;29.03;81.95;98921.09;4939425;28;103183;-63
2023/08/20 00:15:56;;;;;;;9.05;8.25;;;;;;;29.59;79.09;98920.13;4945741;28;103954;-63
2023/08/20 00:18:24;;;;;;;10.07;9.17;;;;;;;29.84;77.51;98929.06;4934404;28;105339;-63
2023/08/20 00:20:56;;;;;;;12.20;11.20;;;;;;;29.15;80.18;98922.03;4935162;28;103242;-63
2023/08/20 00:23:25;;;;;;;12.95;11.90;;;;;;;28.48;84.30;98924.66;4937289;28;102827;-63
2023/08/20 00:25:53;;;;;;;11.07;10.18;;;;;;;29.11;81.74;98926.25;4933451;28;103269;-63
2023/08/20 00:28:21;;;;;;;10.03;9.23;;;;;;;29.30;80.54;98924.44;4937131;28;104342;-63
2023/08/20 00:30:50;;;;;;;8.05;7.35;;;;;;;29.71;78.41;98934.63;4932452;28;103514;-63
2023/08/20 00:33:18;;;;;;;13.25;12.05;;;;;;;28.72;83.05;98929.31;4934510;28;102801;-63
2023/08/20 00:35:46;;;;;;;13.13;11.93;;;;;;;28.50;84.38;98926.09;4937398;28;102695;-64
2023/08/20 00:38:15;;;;;;;9.90;9.00;;;;;;;29.43;80.26;98935.16;4935539;28;104455;-63
2023/08/20 00:40:43;;;;;;;12.17;11.17;;;;;;;29.26;80.44;98937.66;4932899;28;103254;-63
2023/08/20 00:43:11;;;;;;;12.77;11.75;;;;;;;29.11;81.52;98939.84;4933612;28;102825;-63
2023/08/20 00:45:41;;;;;;;12.60;11.50;;;;;;;29.05;81.27;98938.03;4939994;28;102898;-63
2023/08/20 00:48:10;;;;;;;11.82;10.68;;;;;;;29.25;80.96;98930.53;4938757;28;103275;-64
2023/08/20 00:50:39;;;;;;;9.73;8.93;;;;;;;29.60;79.56;98929.97;4934583;28;104054;-62
2023/08/20 00:53:09;;;;;;;9.73;8.93;;;;;;;29.82;77.71;98925.75;4938187;28;102739;-62
2023/08/20 00:55:38;;;;;;;13.77;12.48;;;;;;;29.25;80.55;98930.53;4935017;28;104221;-63
2023/08/20 00:58:06;;;;;;;11.83;10.93;;;;;;;29.44;79.75;98934.13;4939645;28;104524;-64
2023/08/20 01:00:34;;;;;;;10.90;10.02;;;;;;;29.64;78.23;98931.19;4938619;28;103269;-63
2023/08/20 01:03:03;;;;;;;13.60;12.40;;;;;;;29.03;81.58;98931.97;4937123;28;102962;-63
2023/08/20 01:05:37;;;;;;;14.05;12.88;;;;;;;28.31;85.94;98928.97;4939852;28;104311;-62
2023/08/20 01:08:20;;;;;;;16.17;14.60;;;;;;;27.69;90.05;98930.50;4930068;28;104205;-62
2023/08/20 01:10:57;;;;;;;14.33;12.93;;;;;;;28.34;87.71;98933.97;4930609;28;103259;-62
2023/08/20 01:13:25;;;;;;;12.20;11.10;;;;;;;28.67;85.71;98935.44;4929770;28;103016;-62
2023/08/20 01:15:53;;;;;;;13.07;11.98;;;;;;;29.00;82.21;98939.75;4930978;28;104294;-63
2023/08/20 01:18:21;;;;;;;12.80;11.75;;;;;;;29.00;82.35;98937.84;4939833;28;103738;-63
2023/08/20 01:20:53;;;;;;;12.50;11.57;;;;;;;29.03;81.62;98944.72;4933154;28;104221;-63
2023/08/20 01:23:43;;;;;;;15.30;14.00;;;;;;;28.39;85.44;98940.41;4938524;28;102897;-62
2023/08/20 01:26:32;;;;;;;14.00;12.88;;;;;;;28.35;85.74;98939.16;4954424;28;102673;-62
2023/08/20 01:29:03;;;;;;;13.70;12.57;;;;;;;28.55;84.99;98948.00;4935779;28;104147;-64
2023/08/20 01:31:32;;;;;;;12.15;11.15;;;;;;;28.99;81.55;98947.09;4943427;28;103330;-63
2023/08/20 01:34:01;;;;;;;12.13;11.13;;;;;;;29.07;81.04;98940.53;4943939;28;103372;-63
2023/08/20 01:36:29;;;;;;;13.75;12.55;;;;;;;28.67;83.12;98948.19;4942558;28;104440;-63
2023/08/20 01:38:59;;;;;;;15.75;14.43;;;;;;;28.13;86.58;98941.38;4931350;28;104047;-64
2023/08/20 01:41:27;;;;;;;13.00;12.00;;;;;;;28.63;84.54;98947.78;4933534;28;103189;-64
2023/08/20 01:43:57;;;;;;;12.60;11.60;;;;;;;28.93;81.87;98947.97;4935450;28;102914;-64
2023/08/20 01:46:26;;;;;;;14.73;13.30;;;;;;;28.63;83.05;98946.97;4942926;28;103299;-63
2023/08/20 01:48:54;;;;;;;15.40;14.10;;;;;;;28.36;85.17;98945.44;4941162;28;104420;-64
2023/08/20 01:51:22;;;;;;;15.93;14.57;;;;;;;27.67;88.54;98951.59;4935798;28;103290;-63
2023/08/20 01:53:50;;;;;;;15.27;14.03;;;;;;;27.67;88.30;98946.16;4938079;28;102957;-62
2023/08/20 01:56:18;;;;;;;14.75;13.45;;;;;;;28.00;86.63;98949.56;4934163;28;103010;-63
2023/08/20 01:58:46;;;;;;;14.20;13.00;;;;;;;27.91;87.59;98959.00;4943209;28;104094;-63
2023/08/20 02:01:15;;;;;;;12.17;11.17;;;;;;;28.51;84.97;98959.56;4934775;28;104311;-62
2023/08/20 02:03:44;;;;;;;14.18;13.07;;;;;;;28.55;83.83;98949.91;4938710;28;103593;-63
2023/08/20 02:06:12;;;;;;;15.20;14.00;;;;;;;27.92;85.96;98955.25;4936811;28;103881;-63
2023/08/20 02:08:43;;;;;;;14.70;13.50;;;;;;;28.17;85.01;98947.22;4938184;28;104216;-62
2023/08/20 02:11:11;;;;;;;13.80;12.50;;;;;;;28.30;85.57;98954.44;4932218;28;104140;-63
2023/08/20 02:13:39;;;;;;;11.47;10.57;;;;;;;28.75;82.70;98950.63;4938456;28;102855;-63
2023/08/20 02:16:07;;;;;;;11.55;10.65;;;;;;;28.90;80.78;98948.41;4936304;28;102785;-63
2023/08/20 02:18:35;;;;;;;12.48;11.40;;;;;;;28.82;80.63;98956.84;4939969;28;103901;-62
2023/08/20 02:21:04;;;;;;;12.10;11.10;;;;;;;28.68;81.30;98955.28;4936594;28;104093;-63
2023/08/20 02:23:32;;;;;;;11.38;10.45;;;;;;;28.90;79.87;98959.28;4938486;28;102662;-63
2023/08/20 02:26:00;;;;;;;13.10;11.93;;;;;;;28.43;81.46;98952.50;4948313;28;102922;-62
2023/08/20 02:28:30;;;;;;;11.90;10.90;;;;;;;28.32;82.38;98952.38;4929941;28;103998;-62
2023/08/20 02:30:59;;;;;;;12.20;11.10;;;;;;;28.42;81.80;98950.00;4931831;28;104743;-61
2023/08/20 02:33:28;;;;;;;12.77;11.68;;;;;;;27.93;84.24;98954.19;4941906;28;102822;-62
2023/08/20 02:36:03;;;;;;;13.70;12.50;;;;;;;27.28;88.12;98957.09;4939102;28;104006;-63
2023/08/20 02:38:32;;;;;;;11.87;10.87;;;;;;;27.91;85.64;98952.75;4939464;28;104204;-62
2023/08/20 02:41:00;;;;;;;13.13;11.95;;;;;;;27.97;84.31;98960.03;4935623;28;104620;-63
2023/08/20 02:43:28;;;;;;;11.98;10.95;;;;;;;28.02;84.97;98958.31;4933070;28;104634;-63
2023/08/20 02:45:56;;;;;;;12.25;11.20;;;;;;;28.32;82.38;98960.53;4933581;28;103740;-62
2023/08/20 02:48:26;;;;;;;12.57;11.48;;;;;;;28.13;83.76;98965.81;4936820;28;103813;-62
2023/08/20 02:50:54;;;;;;;9.57;8.77;;;;;;;28.56;81.42;98962.44;4933320;28;103147;-62
2023/08/20 02:53:24;;;;;;;10.82;9.95;;;;;;;28.71;79.58;98957.56;4933351;28;104244;-62
2023/08/20 02:55:52;;;;;;;12.55;11.55;;;;;;;28.39;81.30;98953.16;4936535;28;104305;-62
2023/08/20 02:58:20;;;;;;;11.10;10.02;;;;;;;28.58;80.78;98954.91;4932094;28;104375;-63
2023/08/20 03:00:48;;;;;;;13.90;12.68;;;;;;;27.76;83.58;98950.31;4936715;28;104112;-63
2023/08/20 03:03:16;;;;;;;14.55;13.35;;;;;;;26.65;91.05;98948.53;4933221;28;102703;-63
2023/08/20 03:05:45;;;;;;;14.38;13.18;;;;;;;26.87;92.84;98941.88;4936715;28;104614;-63
2023/08/20 03:08:15;;;;;;;12.68;11.60;;;;;;;27.69;86.95;98930.50;4932723;28;103452;-63
2023/08/20 03:10:44;;;;;;;11.52;10.55;;;;;;;27.99;84.98;98934.31;4934903;28;104128;-62
2023/08/20 03:13:12;;;;;;;11.77;10.77;;;;;;;28.27;82.58;98936.69;4937704;28;102745;-63
2023/08/20 03:15:40;;;;;;;10.63;9.63;;;;;;;28.35;82.05;98938.34;4937391;28;102666;-63
2023/08/20 03:18:09;;;;;;;12.30;11.30;;;;;;;27.66;85.15;98933.63;4937051;28;104261;-63
2023/08/20 03:20:37;;;;;;;13.13;12.03;;;;;;;27.50;87.12;98928.69;4942639;28;103241;-63
2023/08/20 03:23:05;;;;;;;13.95;12.63;;;;;;;27.06;90.07;98940.19;4939760;28;102853;-63
2023/08/20 03:25:32;;;;;;;13.30;12.20;;;;;;;26.63;92.93;98949.78;4937758;28;104265;-63
2023/08/20 03:28:05;;;;;;;10.77;10.00;;;;;;;27.17;92.00;98952.31;4946996;28;103872;-63
2023/08/20 03:30:33;;;;;;;13.18;12.13;;;;;;;27.44;88.99;98948.53;4937683;28;103245;-63
2023/08/20 03:33:01;;;;;;;14.57;13.38;;;;;;;26.78;91.16;98956.69;4939398;28;102751;-63
2023/08/20 03:35:32;;;;;;;10.60;9.80;;;;;;;27.53;88.92;98952.69;4943100;28;104316;-62
2023/08/20 03:38:00;;;;;;;9.02;8.32;;;;;;;28.09;84.56;98934.75;4935067;28;105834;-63
2023/08/20 03:40:28;;;;;;;9.45;8.65;;;;;;;28.29;82.27;98929.19;4955620;28;103227;-63
2023/08/20 03:42:56;;;;;;;11.27;10.30;;;;;;;28.02;81.77;98944.75;4941245;28;102713;-63
2023/08/20 03:45:27;;;;;;;12.87;11.83;;;;;;;27.20;85.38;98947.28;4939035;28;104597;-63
2023/08/20 03:47:55;;;;;;;12.37;11.27;;;;;;;27.24;86.68;98944.97;4949030;28;104952;-60
2023/08/20 03:50:23;;;;;;;10.45;9.63;;;;;;;27.64;84.75;98941.16;4935017;28;103370;-60
2023/08/20 03:52:51;;;;;;;12.43;11.43;;;;;;;27.00;87.65;98947.28;4939113;28;102879;-59
2023/08/20 03:55:19;;;;;;;13.85;12.65;;;;;;;26.41;91.91;98946.41;4935632;28;104116;-61
2023/08/20 03:57:47;;;;;;;15.00;13.57;;;;;;;26.00;96.72;98945.63;4938214;28;104500;-59
2023/08/20 04:00:17;;;;;;;16.55;15.05;;;;;;;25.69;100.00;98948.84;4937433;28;103213;-62
2023/08/20 04:02:47;;;;;;;16.80;15.25;;;;;;;25.58;100.00;98947.53;4944704;28;102760;-61
2023/08/20 04:05:15;;;;;;;15.00;13.73;;;;;;;26.31;98.56;98945.97;4938698;28;103638;-61
2023/08/20 04:07:43;;;;;;;12.77;11.77;;;;;;;26.96;94.40;98954.19;4937117;28;104220;-61
2023/08/20 04:10:10;;;;;;;15.40;13.90;;;;;;;26.34;97.25;98959.09;4959179;28;103967;-61
2023/08/20 04:12:40;;;;;;;15.20;13.90;;;;;;;26.19;97.32;98966.56;4943230;28;103938;-61
2023/08/20 04:15:11;;;;;;;16.08;14.25;;;;;;;26.03;99.09;98961.47;4935489;28;102982;-61
2023/08/20 04:17:40;;;;;;;15.82;14.40;;;;;;;26.15;99.51;98970.72;4934250;28;105894;-61
2023/08/20 04:20:11;;;;;;;16.20;14.80;;;;;;;25.88;100.00;98959.75;4934877;28;103393;-61
2023/08/20 04:22:40;;;;;;;16.67;15.18;;;;;;;25.96;99.63;98955.22;4932919;28;103070;-62
2023/08/20 04:25:08;;;;;;;14.70;13.40;;;;;;;26.28;98.31;98954.50;4925584;28;104246;-61
2023/08/20 04:27:36;;;;;;;15.75;14.38;;;;;;;26.18;97.03;98960.31;4938024;28;105465;-61
2023/08/20 04:30:06;;;;;;;16.90;15.23;;;;;;;25.80;99.97;98961.78;4934430;28;105066;-62
2023/08/20 04:32:34;;;;;;;17.20;15.70;;;;;;;25.42;100.00;98969.47;4936648;28;103085;-60
2023/08/20 04:35:03;;;;;;;17.52;15.95;;;;;;;25.31;100.00;98968.16;4935779;28;103047;-60
2023/08/20 04:37:35;;;;;;;18.00;16.42;;;;;;;25.42;100.00;98968.63;4942034;28;104301;-60
2023/08/20 04:40:08;;;;;;;17.53;16.03;;;;;;;25.26;100.00;98977.91;4936638;28;104965;-60
2023/08/20 04:42:36;;;;;;;17.95;16.25;;;;;;;25.29;100.00;98966.69;4934569;28;102990;-61
2023/08/20 04:45:04;;;;;;;18.85;17.23;;;;;;;25.21;100.00;98985.75;4932786;28;103367;-61
2023/08/20 04:47:32;;;;;;;15.85;14.60;;;;;;;26.02;100.00;98981.47;4937485;28;103442;-61
2023/08/20 04:50:01;;;;;;;16.30;15.03;;;;;;;26.11;100.00;98985.66;4937503;28;103177;-61
2023/08/20 04:52:30;;;;;;;10.40;9.68;;;;;;;27.09;96.48;98990.47;4940020;28;102811;-61
2023/08/20 04:54:59;;;;;;;9.90;9.20;;;;;;;27.59;93.11;98987.91;4939683;28;103695;-60
2023/08/20 04:57:27;;;;;;;10.33;9.43;;;;;;;27.76;90.38;98996.47;4943940;28;103670;-60
2023/08/20 04:59:57;;;;;;;9.13;8.40;;;;;;;27.92;88.27;98993.25;4939518;28;105984;-61
2023/08/20 05:02:45;;;;;;;12.30;10.77;;;;;;;28.06;88.42;98994.91;4935531;28;103091;-60
2023/08/20 05:05:16;;;;;;;12.25;10.95;;;;;;;27.48;89.38;98995.91;4933647;28;103150;-61
2023/08/20 05:07:45;;;;;;;9.13;8.27;;;;;;;27.97;87.89;99000.75;4936975;28;103246;-61
2023/08/20 05:10:14;;;;;;;13.05;11.75;;;;;;;27.76;89.25;99001.88;4938781;28;104256;-61
2023/08/20 05:12:42;;;;;;;8.35;7.65;;;;;;;28.12;88.25;98994.06;4941223;28;103924;-60
2023/08/20 05:15:11;;;;;;;7.95;7.35;;;;;;;28.31;87.24;98986.84;4936143;28;104247;-60
2023/08/20 05:17:40;;;;;;;10.20;9.30;;;;;;;28.37;85.59;98987.84;4935914;28;105340;-60
2023/08/20 05:20:10;;;;;;;10.43;9.63;;;;;;;28.38;85.85;98975.94;4951667;28;103900;-60
2023/08/20 05:22:38;;;;;;;12.32;11.27;;;;;;;27.90;88.29;98973.63;4938784;28;102850;-61
2023/08/20 05:25:06;;;;;;;15.02;13.73;;;;;;;26.26;95.79;98965.53;4936413;28;103004;-61
2023/08/20 05:27:36;;;;;;;16.20;14.80;;;;;;;25.70;100.00;98983.81;4936394;28;105368;-60
2023/08/20 05:30:08;;;;;;;18.58;16.92;;;;;;;26.04;100.00;98990.22;4941412;28;103241;-61
2023/08/20 05:32:36;;;;;;;15.80;14.57;;;;;;;26.77;96.68;98995.66;4936522;28;103046;-60
2023/08/20 05:35:05;;;;;;;16.63;15.13;;;;;;;26.84;95.41;98999.22;4936836;28;103803;-61
2023/08/20 05:37:33;;;;;;;15.95;14.65;;;;;;;26.49;98.45;98994.97;4938895;28;104444;-61
2023/08/20 05:40:02;;;;;;;14.55;13.45;;;;;;;26.97;97.54;98993.81;4933668;28;103427;-61
2023/08/20 05:42:33;;;;;;;17.08;15.50;;;;;;;26.68;97.45;98994.19;4945285;28;103287;-61
2023/08/20 05:45:06;;;;;;;12.32;11.32;;;;;;;27.40;94.52;98993.34;4933330;28;103946;-60
2023/08/20 05:47:34;;;;;;;11.35;10.45;;;;;;;28.22;91.10;98998.16;4936443;28;104164;-60
2023/08/20 05:50:02;;;;;;;10.10;9.20;;;;;;;28.63;88.47;98998.63;4932252;28;104966;-61
2023/08/20 05:52:30;;;;;;;11.98;10.98;;;;;;;28.75;87.33;99010.44;4938285;28;102708;-60
2023/08/20 05:54:58;;;;;;;9.80;9.10;;;;;;;28.92;86.74;99011.56;4939929;28;104140;-60
2023/08/20 05:57:26;;;;;;;10.73;9.73;;;;;;;29.04;86.32;99007.09;4936415;28;104266;-61
2023/08/20 05:59:54;;;;;;;10.57;9.67;;;;;;;29.22;85.31;99001.72;4935684;28;104215;-61
2023/08/20 06:02:23;;;;;;;10.20;9.35;;;;;;;29.44;84.75;99004.88;4936240;28;103323;-61
2023/08/20 06:04:51;;;;;;;9.73;9.02;;;;;;;29.60;83.51;99006.19;4940188;28;103312;-61
2023/08/20 06:07:19;;;;;;;10.32;9.43;;;;;;;29.71;82.77;99010.88;4936267;28;103350;-61
2023/08/20 06:09:49;;;;;;;10.87;10.00;;;;;;;29.96;81.82;99008.94;4934035;28;103254;-62
2023/08/20 06:12:18;;;;;;;12.73;11.52;;;;;;;29.80;83.28;99023.16;4939939;28;102769;-61
2023/08/20 06:14:46;;;;;;;13.38;12.18;;;;;;;29.43;84.55;99024.13;4939943;28;103144;-61
2023/08/20 06:17:14;;;;;;;14.03;12.83;;;;;;;29.08;86.95;99024.59;4944325;28;103015;-61
2023/08/20 06:19:43;;;;;;;12.03;11.10;;;;;;;29.86;84.03;99022.28;4938768;28;104003;-61
2023/08/20 06:22:14;;;;;;;12.80;11.70;;;;;;;29.99;83.05;99024.81;4939294;28;102727;-61
2023/08/20 06:24:42;;;;;;;14.80;13.32;;;;;;;28.73;87.82;99034.28;4943317;28;102981;-63
2023/08/20 06:27:11;;;;;;;11.03;10.13;;;;;;;29.63;86.86;99036.50;4952885;28;105705;-63
2023/08/20 06:29:39;;;;;;;10.93;10.02;;;;;;;30.30;83.38;99032.81;4937821;28;103340;-63
2023/08/20 06:32:07;;;;;;;10.95;10.05;;;;;;;30.76;81.27;99036.84;4951198;28;102716;-63
2023/08/20 06:34:36;;;;;;;11.35;10.27;;;;;;;30.86;80.93;99031.66;4941319;28;104212;-62
2023/08/20 06:37:05;;;;;;;11.00;10.07;;;;;;;30.64;82.20;99028.63;4939853;28;103037;-63
2023/08/20 06:39:33;;;;;;;9.52;8.80;;;;;;;31.06;80.80;99032.22;4942754;28;103342;-63
2023/08/20 06:42:02;;;;;;;9.70;8.90;;;;;;;31.42;79.74;99026.56;4949594;28;102921;-63
2023/08/20 06:44:30;;;;;;;12.85;11.75;;;;;;;31.01;80.22;99034.81;4942558;28;102704;-63
2023/08/20 06:47:01;;;;;;;12.38;11.32;;;;;;;30.89;80.25;99033.91;4942180;28;105040;-63
2023/08/20 06:49:29;;;;;;;11.88;10.93;;;;;;;31.29;79.59;99032.25;4950359;28;103313;-63
2023/08/20 06:51:56;;;;;;;13.27;12.07;;;;;;;30.93;81.59;99026.97;4948326;28;102749;-63
2023/08/20 06:54:26;;;;;;;13.40;12.07;;;;;;;30.59;82.87;99024.94;4947386;28;102688;-63
2023/08/20 06:56:54;;;;;;;12.68;11.57;;;;;;;30.51;83.27;99034.28;4949567;28;104080;-61
2023/08/20 06:59:22;;;;;;;12.70;11.60;;;;;;;30.99;81.61;99031.50;4947347;28;103248;-63
2023/08/20 07:01:50;;;;;;;10.60;9.70;;;;;;;31.61;79.59;99035.47;4952933;28;102845;-61
2023/08/20 07:04:18;;;;;;;11.27;10.38;;;;;;;32.06;78.49;99041.16;4946152;28;103311;-61
2023/08/20 07:06:51;;;;;;;13.32;10.98;;;;;;;32.03;77.91;99034.28;4939911;28;103136;-61
2023/08/20 07:09:19;;;;;;;12.02;10.93;;;;;;;32.06;78.13;99035.69;4952239;28;103442;-62
2023/08/20 07:11:49;;;;;;;12.47;11.17;;;;;;;31.77;79.88;99050.34;4943265;28;102811;-61
2023/08/20 07:14:17;;;;;;;10.40;9.50;;;;;;;32.55;77.03;99037.84;4943233;28;103001;-64
2023/08/20 07:16:44;;;;;;;10.55;9.75;;;;;;;32.53;76.09;99042.72;4932621;28;103679;-61
2023/08/20 07:19:12;;;;;;;9.88;8.93;;;;;;;32.61;76.21;99042.34;4936214;28;104200;-63
2023/08/20 07:21:40;;;;;;;11.85;10.73;;;;;;;32.61;74.55;99041.50;4935884;28;102713;-61
2023/08/20 07:24:08;;;;;;;12.98;11.80;;;;;;;31.95;78.57;99041.97;4937921;28;104269;-61
2023/08/20 07:26:36;;;;;;;13.48;12.23;;;;;;;31.90;78.87;99050.06;4940038;28;104199;-63
2023/08/20 07:29:06;;;;;;;15.18;13.70;;;;;;;30.54;82.89;99060.25;4945695;28;103564;-61
2023/08/20 07:31:34;;;;;;;11.63;10.65;;;;;;;32.21;77.47;99057.91;4935269;28;102927;-60
2023/08/20 07:34:04;;;;;;;12.80;11.75;;;;;;;31.79;78.67;99070.03;4930182;28;105475;-63
2023/08/20 07:36:33;;;;;;;15.57;13.90;;;;;;;30.87;81.92;99066.06;4943716;28;104545;-63
2023/08/20 07:39:01;;;;;;;14.35;13.05;;;;;;;29.97;87.07;99065.09;4951806;28;103122;-61
2023/08/20 07:41:30;;;;;;;13.13;11.93;;;;;;;31.16;81.91;99070.66;4941560;28;102893;-63
2023/08/20 07:43:59;;;;;;;13.68;12.15;;;;;;;32.78;76.36;99072.47;4947236;28;102800;-63
2023/08/20 07:46:36;;;;;;;14.20;12.70;;;;;;;32.17;79.05;99075.84;4936367;28;104192;-62
2023/08/20 07:49:04;;;;;;;10.50;9.55;;;;;;;33.23;76.21;99070.59;4933308;28;103260;-65
2023/08/20 07:51:32;;;;;;;13.55;12.35;;;;;;;32.32;76.91;99073.44;4937283;28;102723;-60
2023/08/20 07:54:00;;;;;;;12.85;11.75;;;;;;;32.36;78.08;99066.41;4941368;28;104309;-63
2023/08/20 07:56:28;;;;;;;13.50;12.40;;;;;;;32.17;77.95;99078.56;4945970;28;104041;-61
2023/08/20 07:58:58;;;;;;;12.53;11.27;;;;;;;32.88;75.19;99077.28;4943893;28;103236;-61
2023/08/20 08:01:27;;;;;;;14.02;12.80;;;;;;;32.57;75.94;99076.72;4932983;28;102695;-63
2023/08/20 08:03:56;;;;;;;13.02;11.82;;;;;;;32.32;77.27;99076.16;4937991;28;104094;-62
2023/08/20 08:06:26;;;;;;;13.15;11.95;;;;;;;32.24;78.87;99082.00;4943361;28;103902;-60
2023/08/20 08:08:55;;;;;;;11.93;10.90;;;;;;;33.00;75.83;99072.59;4948886;28;104986;-61
2023/08/20 08:11:24;;;;;;;12.77;11.40;;;;;;;32.90;75.96;99083.38;4942998;28;102659;-63
2023/08/20 08:13:52;;;;;;;12.43;10.73;;;;;;;33.95;73.55;99081.59;4944461;28;105010;-63
2023/08/20 08:16:20;;;;;;;12.40;11.20;;;;;;;34.36;72.02;99083.00;4946153;28;104028;-62
2023/08/20 08:18:50;;;;;;;13.63;12.23;;;;;;;33.30;74.51;99080.53;4947321;28;103179;-63
2023/08/20 08:21:22;;;;;;;15.98;14.68;;;;;;;32.34;75.08;99087.69;4945132;28;102789;-60
2023/08/20 08:23:53;;;;;;;10.68;9.77;;;;;;;34.05;72.39;99080.94;4940142;28;103993;-63
2023/08/20 08:26:23;;;;;;;13.00;11.90;;;;;;;33.79;72.39;99086.06;4947917;28;103843;-64
2023/08/20 08:28:53;;;;;;;13.57;12.27;;;;;;;33.49;73.80;99085.53;4949089;28;103247;-62
2023/08/20 08:31:21;;;;;;;12.65;11.52;;;;;;;34.21;70.89;99091.03;4944845;28;103443;-60
2023/08/20 08:33:49;;;;;;;10.45;9.65;;;;;;;35.08;69.00;99080.88;4945856;28;102743;-63
2023/08/20 08:36:17;;;;;;;11.82;10.70;;;;;;;36.28;64.29;99084.81;4943230;28;104013;-63
2023/08/20 08:38:47;;;;;;;13.38;12.07;;;;;;;34.87;67.31;99085.28;4962094;28;103975;-62
2023/08/20 08:41:16;;;;;;;15.03;12.03;;;;;;;35.61;64.72;99079.16;4951484;28;103760;-63
2023/08/20 08:43:46;;;;;;;12.95;11.70;;;;;;;35.37;63.73;99087.72;4956725;28;102867;-61
2023/08/20 08:46:15;;;;;;;9.13;8.43;;;;;;;37.09;61.23;99085.94;4953089;28;104196;-64
2023/08/20 08:48:44;;;;;;;11.13;10.23;;;;;;;37.70;58.69;99089.59;4950137;28;103414;-61
2023/08/20 08:51:13;;;;;;;11.52;10.45;;;;;;;37.29;59.47;99085.13;4947237;28;102656;-61
2023/08/20 08:53:43;;;;;;;11.47;10.27;;;;;;;36.62;60.06;99088.84;4942118;28;102827;-61
2023/08/20 08:56:15;;;;;;;10.95;9.95;;;;;;;37.41;60.34;99089.28;4942955;28;103610;-61
2023/08/20 08:58:43;;;;;;;11.73;10.63;;;;;;;36.19;60.60;99091.91;4945797;28;103010;-61
2023/08/20 09:01:11;;;;;;;11.83;10.80;;;;;;;35.41;63.48;99093.53;4942603;28;102882;-62
2023/08/20 09:03:42;;;;;;;11.90;10.80;;;;;;;34.89;66.16;99087.78;4941519;28;104412;-61
2023/08/20 09:09:06;;;;;;;11.05;9.95;;;;;;;36.64;60.77;99089.38;4943716;28;103144;-62
2023/08/20 09:11:37;;;;;;;11.45;10.45;;;;;;;36.94;59.81;99086.72;4944708;28;102839;-62
2023/08/20 09:14:05;;;;;;;9.32;8.52;;;;;;;37.68;57.24;99084.34;4944502;28;102720;-62
2023/08/20 09:16:36;;;;;;;12.07;10.70;;;;;;;36.86;59.40;99089.19;4947643;28;104115;-62
2023/08/20 09:19:04;;;;;;;13.07;11.80;;;;;;;36.28;61.43;99084.81;4951933;28;103195;-62
2023/08/20 09:21:32;;;;;;;12.23;10.98;;;;;;;36.57;59.07;99083.31;4943759;28;104008;-61
2023/08/20 09:24:02;;;;;;;10.97;9.93;;;;;;;35.49;64.62;99082.03;4949887;28;104077;-61
2023/08/20 09:26:30;;;;;;;9.37;8.57;;;;;;;36.59;62.53;99086.63;4953098;28;103278;-62
2023/08/20 09:29:03;;;;;;;9.40;8.65;;;;;;;38.50;56.91;99082.25;4948485;28;103313;-61
2023/08/20 09:31:39;;;;;;;11.57;10.57;;;;;;;38.27;55.21;99079.00;4940919;28;103029;-61
2023/08/20 09:34:13;;;;;;;11.10;10.00;;;;;;;37.42;58.58;99074.44;4944976;28;103826;-63
2023/08/20 09:36:44;;;;;;;10.67;9.77;;;;;;;37.84;56.33;99082.38;4949509;28;103754;-61
2023/08/20 09:39:12;;;;;;;11.73;10.52;;;;;;;35.75;61.12;99081.19;4940422;28;104039;-61
2023/08/20 09:41:41;;;;;;;12.10;10.90;;;;;;;36.61;58.01;99081.66;4955439;28;102863;-62
2023/08/20 09:44:10;;;;;;;9.88;9.07;;;;;;;37.80;57.90;99078.53;4944165;28;102913;-62
2023/08/20 09:46:41;;;;;;;9.25;8.38;;;;;;;38.67;55.30;99085.47;4948912;28;103407;-62
2023/08/20 09:49:15;;;;;;;10.27;9.30;;;;;;;36.56;58.60;99081.66;4946331;28;102983;-62
2023/08/20 09:51:51;;;;;;;9.65;8.85;;;;;;;38.36;56.12;99086.72;4945325;28;102679;-63
2023/08/20 09:54:27;;;;;;;9.85;8.93;;;;;;;37.72;58.05;99079.94;4946092;28;102742;-63
2023/08/20 09:57:01;;;;;;;9.52;7.90;;;;;;;38.44;54.38;99077.84;4945855;28;103370;-62
2023/08/20 09:59:35;;;;;;;8.07;7.37;;;;;;;38.75;55.42;99077.41;4946792;28;103194;-62
2023/08/20 10:02:04;;;;;;;8.63;7.80;;;;;;;39.10;54.36;99072.81;4948881;28;102698;-63
2023/08/20 10:04:32;;;;;;;9.37;8.10;;;;;;;35.51;61.28;99080.69;4941183;28;102935;-62
2023/08/20 10:07:04;;;;;;;8.43;7.68;;;;;;;37.54;55.01;99061.19;4944789;28;103412;-62
2023/08/20 10:09:33;;;;;;;9.20;8.20;;;;;;;37.17;54.49;99069.72;4947530;28;103175;-62
2023/08/20 10:12:09;;;;;;;8.52;7.65;;;;;;;37.28;54.40;99066.97;4942716;28;102735;-62
2023/08/20 10:14:39;;;;;;;8.93;8.02;;;;;;;36.93;56.33;99070.47;4946114;28;103014;-63
2023/08/20 10:17:15;;;;;;;8.48;7.60;;;;;;;38.03;54.13;99066.13;4952522;28;104128;-63
2023/08/20 10:19:47;;;;;;;8.45;7.68;;;;;;;38.71;53.39;99064.47;4942818;28;103560;-62
2023/08/20 10:22:34;;;;;;;8.17;7.33;;;;;;;37.99;54.65;99065.84;4949237;28;102933;-62
2023/08/20 10:25:06;;;;;;;10.55;8.10;;;;;;;37.25;55.65;99068.34;4945067;28;103918;-63
2023/08/20 10:27:38;;;;;;;10.27;8.30;;;;;;;37.31;56.81;99066.44;4944341;28;104346;-63
2023/08/20 10:30:15;;;;;;;9.00;8.20;;;;;;;37.56;56.84;99063.69;4951799;28;103269;-62
2023/08/20 10:32:49;;;;;;;8.90;8.03;;;;;;;36.54;55.76;99073.69;4948336;28;103821;-63
2023/08/20 10:35:18;;;;;;;9.70;8.27;;;;;;;37.61;55.67;99060.94;4942524;28;103578;-62
2023/08/20 10:38:05;;;;;;;7.88;7.18;;;;;;;39.16;50.76;99072.47;4944688;28;103312;-62
2023/08/20 10:40:56;;;;;;;9.60;7.90;;;;;;;36.86;53.98;99072.69;4946931;28;103832;-62
2023/08/20 10:43:33;;;;;;;7.28;6.65;;;;;;;39.41;51.45;99068.72;4947096;28;103084;-64
2023/08/20 10:46:08;;;;;;;8.00;7.30;;;;;;;38.49;50.93;99072.28;4943768;28;104384;-62
2023/08/20 10:48:42;;;;;;;8.30;7.50;;;;;;;37.01;52.59;99069.97;4941440;28;103024;-64
2023/08/20 10:51:14;;;;;;;8.10;7.05;;;;;;;35.63;54.79;99074.22;4942174;28;103472;-63
2023/08/20 10:54:06;;;;;;;8.45;7.50;;;;;;;36.10;55.05;99069.59;4944542;28;103316;-64
2023/08/20 10:56:42;;;;;;;8.38;7.60;;;;;;;35.69;55.25;99071.25;4948235;28;104548;-63
2023/08/20 10:59:15;;;;;;;7.85;7.13;;;;;;;38.56;49.88;99061.78;4949038;28;103703;-62
2023/08/20 11:01:46;;;;;;;6.80;6.10;;;;;;;38.55;49.62;99054.59;4943057;28;103244;-63
2023/08/20 11:04:16;;;;;;;7.30;6.60;;;;;;;38.38;50.10;99066.00;4933455;28;102869;-63
2023/08/20 11:06:44;;;;;;;7.85;7.25;;;;;;;36.51;55.00;99057.72;4945000;28;102707;-63
2023/08/20 11:09:21;;;;;;;7.95;7.22;;;;;;;35.41;56.18;99057.81;4931195;28;105514;-63
2023/08/20 11:11:49;;;;;;;7.80;7.05;;;;;;;37.47;52.25;99054.31;4947465;28;103273;-63
2023/08/20 11:14:21;;;;;;;6.60;6.10;;;;;;;39.00;51.08;99046.09;4948649;28;102839;-63
2023/08/20 11:16:54;;;;;;;6.93;6.27;;;;;;;39.15;48.23;99043.22;4939039;28;104041;-63
2023/08/20 11:19:24;;;;;;;12.00;7.07;;;;;;;39.26;48.03;99053.09;4939525;28;103375;-62
2023/08/20 11:21:52;;;;;;;7.63;6.90;;;;;;;36.23;54.23;99049.88;4939672;28;103254;-63
2023/08/20 11:24:21;;;;;;;7.33;6.63;;;;;;;38.41;50.91;99039.78;4953111;28;102818;-63
2023/08/20 11:26:49;;;;;;;7.80;7.00;;;;;;;35.82;52.85;99050.72;4942356;28;102817;-63
2023/08/20 11:29:19;;;;;;;7.05;6.35;;;;;;;38.44;50.15;99036.44;4945759;28;104069;-63